Great Eagle — WDJ5132 — position and weather

sailwx.info

Track history (hours):
 
Tides and Currents Weather Stations Pressure Air Temp Water Temp Dewpoint Dewpoint Depression Visibility Wind Speed Wind Dir Waves Ship Positions

Great Eagle

Owner: HNY Ferry Fleet LLC, New York, NY. More information available from US FCC via Universal Licensing System and Coast Guard Vessel Documentation Center.

Last reported at 2017-Nov-10 17:27 UTC. Time now 2017-Dec-11 15:01 UTC.
Position N 40°56' W 073°55'.
Warning: this ship's position is 30 days out of date.

Type: Passenger vessel. MMSI: 367784640.

Date/timePositionNaut miles runAvg speedWind from/ knotsBaromVisibWave heightAir tempDewpointWater temp
2017-Nov-10 17:27N 40°56' W 073°55'1021.8
2017-Nov-10 17:00N 40°47' W 073°60'4 8.9
2017-Nov-10 16:30N 40°42' W 073°59'  
2017-Nov-08 03:13N 40°42' W 073°58'211.7
2017-Nov-08 03:00N 40°44' W 073°58'2 3.9
2017-Nov-08 02:30N 40°43' W 073°58'1 1.6
2017-Nov-08 02:01N 40°42' W 073°59'2 4.7
2017-Nov-08 01:30N 40°45' W 073°58'2 4.4
2017-Nov-08 01:01N 40°43' W 073°58'0 0.8
2017-Nov-08 00:31N 40°42' W 073°59'2 4.1
2017-Nov-08 00:00N 40°45' W 073°58'3 5.1
2017-Nov-07 23:30N 40°42' W 073°60'1 2.4
2017-Nov-07 23:01N 40°43' W 073°58'2 3.9
2017-Nov-07 22:30N 40°44' W 073°58'3 5.3
2017-Nov-07 22:00N 40°42' W 073°60'1 2.4
2017-Nov-07 21:31N 40°43' W 073°58'2 4.0
2017-Nov-07 21:00N 40°45' W 073°58'3 5.6
2017-Nov-07 20:30N 40°42' W 073°60'2 3.2
2017-Nov-07 19:57N 40°43' W 073°58'1 2.8
2017-Nov-07 19:30N 40°45' W 073°58'3 5.4
2017-Nov-07 19:00N 40°42' W 073°60'2 3.1
2017-Nov-07 18:30N 40°43' W 073°58'1 1.5
2017-Nov-07 18:00N 40°44' W 073°58'2 4.4
2017-Nov-07 17:30N 40°42' W 073°60'2 3.5
2017-Nov-07 17:00N 40°43' W 073°58'1 1.2
2017-Nov-07 16:30N 40°44' W 073°58'3 5.1
2017-Nov-07 16:00N 40°42' W 074°00'2 4.3
2017-Nov-07 15:30N 40°43' W 073°58'0 0.9
2017-Nov-07 15:01N 40°44' W 073°58'3 5.0
2017-Nov-07 14:30N 40°42' W 074°00'2 4.6
2017-Nov-07 14:00N 40°44' W 073°58'0 0.6
2017-Nov-07 13:30N 40°43' W 073°58'2 4.3
2017-Nov-07 13:00N 40°42' W 074°00'3 5.1
2017-Nov-07 12:30N 40°44' W 073°58'1 1.3
2017-Nov-07 12:01N 40°43' W 073°58'2 4.3
2017-Nov-07 11:30N 40°42' W 074°00'2 3.1
2017-Nov-07 11:00N 40°42' W 073°58'0 0.0
2017-Nov-06 23:59N 40°42' W 073°59'3 6.9
2017-Nov-06 23:30N 40°45' W 073°57'4 8.2
2017-Nov-06 23:00N 40°42' W 074°00'4 7.9
2017-Nov-06 22:30N 40°45' W 073°57'1 2.1
2017-Nov-06 21:59N 40°46' W 073°56'3 6.5
2017-Nov-06 21:30N 40°43' W 073°58'1 2.8
2017-Nov-06 21:00N 40°42' W 073°58'0 0.0
2017-Nov-06 20:30N 40°42' W 073°58'0 0.0
2017-Nov-05 22:27N 40°42' W 073°58'1 2.8
2017-Nov-05 22:00N 40°42' W 073°60'0 0.1
2017-Nov-05 21:30N 40°42' W 073°60'1 2.9
2017-Nov-05 21:00N 40°43' W 073°58'1 0.9
2017-Nov-05 20:05N 40°42' W 073°58'0 1.4
2017-Nov-05 20:00N 40°42' W 073°58'2 3.0
2017-Nov-05 19:30N 40°42' W 074°00'611.6
2017-Nov-05 19:00N 40°37' W 074°02'1016.0
2017-Nov-05 18:24N 40°35' W 073°50'819.3
2017-Nov-05 18:00N 40°34' W 074°00'816.4
2017-Nov-05 17:31N 40°42' W 074°00'611.3
2017-Nov-05 17:00N 40°37' W 074°03'1015.7
2017-Nov-05 16:24N 40°35' W 073°50'820.6
2017-Nov-05 16:00N 40°34' W 074°01'815.7
2017-Nov-05 15:30N 40°42' W 074°00'611.2
2017-Nov-05 15:00N 40°37' W 074°03'1015.8
2017-Nov-05 14:24N 40°35' W 073°50'821.1
2017-Nov-05 14:01N 40°34' W 074°01'815.7
2017-Nov-05 13:30N 40°42' W 074°00'612.3
2017-Nov-05 13:00N 40°36' W 074°02'912.6
2017-Nov-05 12:15N 40°35' W 073°50'519.9
2017-Nov-05 12:00N 40°34' W 073°56'816.0
2017-Nov-05 11:31N 40°41' W 074°01'3 0.3
2017-Nov-05 01:39N 40°42' W 073°58'1 5.0
2017-Nov-05 01:30N 40°42' W 073°59'612.5
2017-Nov-05 01:01N 40°37' W 074°03'1016.2
2017-Nov-05 00:25N 40°35' W 073°50'820.9
2017-Nov-05 00:00N 40°34' W 074°01'815.9
2017-Nov-04 23:30N 40°42' W 074°00'713.7
2017-Nov-04 23:00N 40°35' W 074°02'915.0
2017-Nov-04 22:24N 40°35' W 073°50'821.1
2017-Nov-04 22:00N 40°34' W 074°01'815.7
2017-Nov-04 21:30N 40°42' W 074°00'612.6
2017-Nov-04 21:00N 40°36' W 074°02'914.9
2017-Nov-04 20:23N 40°35' W 073°50'821.4
2017-Nov-04 20:00N 40°34' W 074°01'816.1
2017-Nov-04 19:31N 40°42' W 074°00'612.6
2017-Nov-04 19:00N 40°36' W 074°02'918.8
2017-Nov-04 18:31N 40°35' W 073°50'816.1
2017-Nov-04 18:00N 40°34' W 074°01'816.3
2017-Nov-04 17:31N 40°42' W 074°00'2 3.1
2017-Nov-04 17:00N 40°42' W 073°58'0 0.0
2017-Nov-04 16:30N 40°42' W 073°58'0 0.0
2017-Nov-03 23:12N 40°42' W 073°58'1 3.4
2017-Nov-03 23:01N 40°42' W 073°59'3 5.0
2017-Nov-03 22:30N 40°45' W 073°58'1 1.7
2017-Nov-03 22:00N 40°45' W 073°57'2 3.6
2017-Nov-03 21:30N 40°44' W 073°58'1 1.0
2017-Nov-03 21:01N 40°44' W 073°58'2 4.7
2017-Nov-03 20:29N 40°46' W 073°56'2 4.7
2017-Nov-03 20:00N 40°45' W 073°58'3 5.4
2017-Nov-03 19:30N 40°42' W 073°60'4 7.4
2017-Nov-03 19:00N 40°45' W 073°57'0 0.4
2017-Nov-03 18:30N 40°45' W 073°57'4 7.7
2017-Nov-03 18:01N 40°42' W 074°00'3 6.3
2017-Nov-03 17:30N 40°45' W 073°58'1 2.3
2017-Nov-03 17:00N 40°46' W 073°57'3 5.6
2017-Nov-03 16:30N 40°43' W 073°58'2 3.0
2017-Nov-03 16:00N 40°45' W 073°58'2 4.5
2017-Nov-03 15:30N 40°46' W 073°56'2 3.8
2017-Nov-03 15:00N 40°45' W 073°58'3 6.7
2017-Nov-03 14:30N 40°42' W 074°00'4 8.0
2017-Nov-03 14:00N 40°45' W 073°57'0 0.5
2017-Nov-03 13:30N 40°45' W 073°57'4 7.8
2017-Nov-03 13:00N 40°42' W 074°00'3 6.5
2017-Nov-03 12:30N 40°45' W 073°58'1 1.8
2017-Nov-03 12:00N 40°46' W 073°57'2 4.0
2017-Nov-03 11:30N 40°44' W 073°58'1 1.7
2017-Nov-03 11:00N 40°45' W 073°58'2 4.5
2017-Nov-03 10:30N 40°46' W 073°56'5 9.2
2017-Nov-03 10:00N 40°42' W 073°58'0 0.0
2017-Nov-03 09:30N 40°42' W 073°58'0 0.0
2017-Nov-03 02:51N 40°42' W 073°58'3 7.5
2017-Nov-03 02:31N 40°45' W 073°58'3 5.6
2017-Nov-03 02:01N 40°42' W 073°60'0 0.9
2017-Nov-03 01:30N 40°42' W 074°00'0 0.9
2017-Nov-03 01:00N 40°42' W 073°60'3 5.4
2017-Nov-03 00:30N 40°45' W 073°58'3 5.3
2017-Nov-03 00:00N 40°42' W 073°60'0 1.0
2017-Nov-02 23:30N 40°42' W 074°00'2 4.7
2017-Nov-02 23:00N 40°44' W 073°58'0 0.9
2017-Nov-02 22:30N 40°43' W 073°58'2 4.2
2017-Nov-02 22:00N 40°42' W 074°00'2 3.4
2017-Nov-02 21:30N 40°43' W 073°58'2 4.1
2017-Nov-02 21:00N 40°45' W 073°58'3 6.1
2017-Nov-02 20:30N 40°42' W 074°00'0 0.1
2017-Nov-02 20:00N 40°42' W 074°00'0 0.8
2017-Nov-02 19:30N 40°42' W 073°60'3 5.4
2017-Nov-02 19:00N 40°45' W 073°58'2 4.8
2017-Nov-02 18:30N 40°42' W 073°59'0 0.5
2017-Nov-02 18:01N 40°42' W 073°60'0 0.8
2017-Nov-02 17:30N 40°42' W 073°60'3 5.5
2017-Nov-02 17:00N 40°44' W 073°58'2 4.5
2017-Nov-02 16:30N 40°42' W 073°59'1 2.3
2017-Nov-02 16:01N 40°42' W 074°00'1 1.3
2017-Nov-02 15:30N 40°42' W 074°00'3 5.9
2017-Nov-02 15:00N 40°45' W 073°58'2 4.5
2017-Nov-02 14:30N 40°42' W 073°59'1 2.3
2017-Nov-02 14:00N 40°42' W 074°00'1 1.5
2017-Nov-02 13:30N 40°42' W 073°59'2 4.9
2017-Nov-02 13:00N 40°45' W 073°58'3 5.4
2017-Nov-02 12:30N 40°42' W 073°60'0 0.9
2017-Nov-02 12:00N 40°42' W 074°00'3 5.2
2017-Nov-02 11:30N 40°44' W 073°58'1 2.9
2017-Nov-02 11:00N 40°43' W 073°58'1 1.0
2017-Nov-02 10:30N 40°42' W 073°58'0 0.0
2017-Nov-02 02:12N 40°42' W 073°58'2 8.5
2017-Nov-02 02:01N 40°44' W 073°58'1 2.5
2017-Nov-02 01:30N 40°45' W 073°57'3 7.0
2017-Nov-02 01:01N 40°42' W 074°00'3 7.0
2017-Nov-02 00:30N 40°45' W 073°57'1 1.1
2017-Nov-01 23:59N 40°45' W 073°57'3 6.5
2017-Nov-01 23:30N 40°43' W 073°59'2 4.3
2017-Nov-01 23:00N 40°45' W 073°58'2 4.5
2017-Nov-01 22:30N 40°46' W 073°56'2 4.6
2017-Nov-01 22:01N 40°45' W 073°58'2 4.1
2017-Nov-01 21:31N 40°43' W 073°59'3 6.3
2017-Nov-01 21:01N 40°46' W 073°57'1 1.5
2017-Nov-01 20:31N 40°45' W 073°57'3 6.9
2017-Nov-01 20:00N 40°42' W 074°00'2 3.1
2017-Nov-01 19:30N 40°42' W 073°58'0 0.0
2017-Nov-01 19:00N 40°42' W 073°58'0 0.0
2017-Nov-01 18:30N 40°42' W 073°58'0 0.0
2017-Oct-31 23:05N 40°42' W 073°58'0 3.9
2017-Oct-31 23:00N 40°42' W 073°58'3 5.1
2017-Oct-31 22:31N 40°45' W 073°58'1 2.2
2017-Oct-31 21:59N 40°46' W 073°57'2 3.4
2017-Oct-31 21:31N 40°44' W 073°58'0 0.6
2017-Oct-31 21:01N 40°44' W 073°58'3 5.4
2017-Oct-31 20:30N 40°46' W 073°56'2 3.5
2017-Oct-31 20:01N 40°45' W 073°57'3 6.3
2017-Oct-31 19:30N 40°42' W 073°60'4 7.3
2017-Oct-31 19:00N 40°45' W 073°57'0 0.0
2017-Oct-31 18:30N 40°45' W 073°57'4 8.1
2017-Oct-31 18:00N 40°42' W 074°00'3 6.1
2017-Oct-31 17:31N 40°45' W 073°58'  
Track history (hours):
 
Tides and Currents Weather Stations Pressure Air Temp Water Temp Dewpoint Dewpoint Depression Visibility Wind Speed Wind Dir Waves Ship Positions

Great Eagle

Owner: HNY Ferry Fleet LLC, New York, NY. More information available from US FCC via Universal Licensing System and Coast Guard Vessel Documentation Center.

Last reported at 2017-Nov-10 17:27 UTC. Time now 2017-Dec-11 15:01 UTC.
Position N 40°56' W 073°55'.
Warning: this ship's position is 30 days out of date.

Type: Passenger vessel. MMSI: 367784640.

Date/timePositionNaut miles runAvg speedWind from/ knotsBaromVisibWave heightAir tempDewpointWater temp
2017-Nov-10 17:27N 40°56' W 073°55'1021.8
2017-Nov-10 17:00N 40°47' W 073°60'4 8.9
2017-Nov-10 16:30N 40°42' W 073°59'  
2017-Nov-08 03:13N 40°42' W 073°58'211.7
2017-Nov-08 03:00N 40°44' W 073°58'2 3.9
2017-Nov-08 02:30N 40°43' W 073°58'1 1.6
2017-Nov-08 02:01N 40°42' W 073°59'2 4.7
2017-Nov-08 01:30N 40°45' W 073°58'2 4.4
2017-Nov-08 01:01N 40°43' W 073°58'0 0.8
2017-Nov-08 00:31N 40°42' W 073°59'2 4.1
2017-Nov-08 00:00N 40°45' W 073°58'3 5.1
2017-Nov-07 23:30N 40°42' W 073°60'1 2.4
2017-Nov-07 23:01N 40°43' W 073°58'2 3.9
2017-Nov-07 22:30N 40°44' W 073°58'3 5.3
2017-Nov-07 22:00N 40°42' W 073°60'1 2.4
2017-Nov-07 21:31N 40°43' W 073°58'2 4.0
2017-Nov-07 21:00N 40°45' W 073°58'3 5.6
2017-Nov-07 20:30N 40°42' W 073°60'2 3.2
2017-Nov-07 19:57N 40°43' W 073°58'1 2.8
2017-Nov-07 19:30N 40°45' W 073°58'3 5.4
2017-Nov-07 19:00N 40°42' W 073°60'2 3.1
2017-Nov-07 18:30N 40°43' W 073°58'1 1.5
2017-Nov-07 18:00N 40°44' W 073°58'2 4.4
2017-Nov-07 17:30N 40°42' W 073°60'2 3.5
2017-Nov-07 17:00N 40°43' W 073°58'1 1.2
2017-Nov-07 16:30N 40°44' W 073°58'3 5.1
2017-Nov-07 16:00N 40°42' W 074°00'2 4.3
2017-Nov-07 15:30N 40°43' W 073°58'0 0.9
2017-Nov-07 15:01N 40°44' W 073°58'3 5.0
2017-Nov-07 14:30N 40°42' W 074°00'2 4.6
2017-Nov-07 14:00N 40°44' W 073°58'0 0.6
2017-Nov-07 13:30N 40°43' W 073°58'2 4.3
2017-Nov-07 13:00N 40°42' W 074°00'3 5.1
2017-Nov-07 12:30N 40°44' W 073°58'1 1.3
2017-Nov-07 12:01N 40°43' W 073°58'2 4.3
2017-Nov-07 11:30N 40°42' W 074°00'2 3.1
2017-Nov-07 11:00N 40°42' W 073°58'0 0.0
2017-Nov-06 23:59N 40°42' W 073°59'3 6.9
2017-Nov-06 23:30N 40°45' W 073°57'4 8.2
2017-Nov-06 23:00N 40°42' W 074°00'4 7.9
2017-Nov-06 22:30N 40°45' W 073°57'1 2.1
2017-Nov-06 21:59N 40°46' W 073°56'3 6.5
2017-Nov-06 21:30N 40°43' W 073°58'1 2.8
2017-Nov-06 21:00N 40°42' W 073°58'0 0.0
2017-Nov-06 20:30N 40°42' W 073°58'0 0.0
2017-Nov-05 22:27N 40°42' W 073°58'1 2.8
2017-Nov-05 22:00N 40°42' W 073°60'0 0.1
2017-Nov-05 21:30N 40°42' W 073°60'1 2.9
2017-Nov-05 21:00N 40°43' W 073°58'1 0.9
2017-Nov-05 20:05N 40°42' W 073°58'0 1.4
2017-Nov-05 20:00N 40°42' W 073°58'2 3.0
2017-Nov-05 19:30N 40°42' W 074°00'611.6
2017-Nov-05 19:00N 40°37' W 074°02'1016.0
2017-Nov-05 18:24N 40°35' W 073°50'819.3
2017-Nov-05 18:00N 40°34' W 074°00'816.4
2017-Nov-05 17:31N 40°42' W 074°00'611.3
2017-Nov-05 17:00N 40°37' W 074°03'1015.7
2017-Nov-05 16:24N 40°35' W 073°50'820.6
2017-Nov-05 16:00N 40°34' W 074°01'815.7
2017-Nov-05 15:30N 40°42' W 074°00'611.2
2017-Nov-05 15:00N 40°37' W 074°03'1015.8
2017-Nov-05 14:24N 40°35' W 073°50'821.1
2017-Nov-05 14:01N 40°34' W 074°01'815.7
2017-Nov-05 13:30N 40°42' W 074°00'612.3
2017-Nov-05 13:00N 40°36' W 074°02'912.6
2017-Nov-05 12:15N 40°35' W 073°50'519.9
2017-Nov-05 12:00N 40°34' W 073°56'816.0
2017-Nov-05 11:31N 40°41' W 074°01'3 0.3
2017-Nov-05 01:39N 40°42' W 073°58'1 5.0
2017-Nov-05 01:30N 40°42' W 073°59'612.5
2017-Nov-05 01:01N 40°37' W 074°03'1016.2
2017-Nov-05 00:25N 40°35' W 073°50'820.9
2017-Nov-05 00:00N 40°34' W 074°01'815.9
2017-Nov-04 23:30N 40°42' W 074°00'713.7
2017-Nov-04 23:00N 40°35' W 074°02'915.0
2017-Nov-04 22:24N 40°35' W 073°50'821.1
2017-Nov-04 22:00N 40°34' W 074°01'815.7
2017-Nov-04 21:30N 40°42' W 074°00'612.6
2017-Nov-04 21:00N 40°36' W 074°02'914.9
2017-Nov-04 20:23N 40°35' W 073°50'821.4
2017-Nov-04 20:00N 40°34' W 074°01'816.1
2017-Nov-04 19:31N 40°42' W 074°00'612.6
2017-Nov-04 19:00N 40°36' W 074°02'918.8
2017-Nov-04 18:31N 40°35' W 073°50'816.1
2017-Nov-04 18:00N 40°34' W 074°01'816.3
2017-Nov-04 17:31N 40°42' W 074°00'2 3.1
2017-Nov-04 17:00N 40°42' W 073°58'0 0.0
2017-Nov-04 16:30N 40°42' W 073°58'0 0.0
2017-Nov-03 23:12N 40°42' W 073°58'1 3.4
2017-Nov-03 23:01N 40°42' W 073°59'3 5.0
2017-Nov-03 22:30N 40°45' W 073°58'1 1.7
2017-Nov-03 22:00N 40°45' W 073°57'2 3.6
2017-Nov-03 21:30N 40°44' W 073°58'1 1.0
2017-Nov-03 21:01N 40°44' W 073°58'2 4.7
2017-Nov-03 20:29N 40°46' W 073°56'2 4.7
2017-Nov-03 20:00N 40°45' W 073°58'3 5.4
2017-Nov-03 19:30N 40°42' W 073°60'4 7.4
2017-Nov-03 19:00N 40°45' W 073°57'0 0.4
2017-Nov-03 18:30N 40°45' W 073°57'4 7.7
2017-Nov-03 18:01N 40°42' W 074°00'3 6.3
2017-Nov-03 17:30N 40°45' W 073°58'1 2.3
2017-Nov-03 17:00N 40°46' W 073°57'3 5.6
2017-Nov-03 16:30N 40°43' W 073°58'2 3.0
2017-Nov-03 16:00N 40°45' W 073°58'2 4.5
2017-Nov-03 15:30N 40°46' W 073°56'2 3.8
2017-Nov-03 15:00N 40°45' W 073°58'3 6.7
2017-Nov-03 14:30N 40°42' W 074°00'4 8.0
2017-Nov-03 14:00N 40°45' W 073°57'0 0.5
2017-Nov-03 13:30N 40°45' W 073°57'4 7.8
2017-Nov-03 13:00N 40°42' W 074°00'3 6.5
2017-Nov-03 12:30N 40°45' W 073°58'1 1.8
2017-Nov-03 12:00N 40°46' W 073°57'2 4.0
2017-Nov-03 11:30N 40°44' W 073°58'1 1.7
2017-Nov-03 11:00N 40°45' W 073°58'2 4.5
2017-Nov-03 10:30N 40°46' W 073°56'5 9.2
2017-Nov-03 10:00N 40°42' W 073°58'0 0.0
2017-Nov-03 09:30N 40°42' W 073°58'0 0.0
2017-Nov-03 02:51N 40°42' W 073°58'3 7.5
2017-Nov-03 02:31N 40°45' W 073°58'3 5.6
2017-Nov-03 02:01N 40°42' W 073°60'0 0.9
2017-Nov-03 01:30N 40°42' W 074°00'0 0.9
2017-Nov-03 01:00N 40°42' W 073°60'3 5.4
2017-Nov-03 00:30N 40°45' W 073°58'3 5.3
2017-Nov-03 00:00N 40°42' W 073°60'0 1.0
2017-Nov-02 23:30N 40°42' W 074°00'2 4.7
2017-Nov-02 23:00N 40°44' W 073°58'0 0.9
2017-Nov-02 22:30N 40°43' W 073°58'2 4.2
2017-Nov-02 22:00N 40°42' W 074°00'2 3.4
2017-Nov-02 21:30N 40°43' W 073°58'2 4.1
2017-Nov-02 21:00N 40°45' W 073°58'3 6.1
2017-Nov-02 20:30N 40°42' W 074°00'0 0.1
2017-Nov-02 20:00N 40°42' W 074°00'0 0.8
2017-Nov-02 19:30N 40°42' W 073°60'3 5.4
2017-Nov-02 19:00N 40°45' W 073°58'2 4.8
2017-Nov-02 18:30N 40°42' W 073°59'0 0.5
2017-Nov-02 18:01N 40°42' W 073°60'0 0.8
2017-Nov-02 17:30N 40°42' W 073°60'3 5.5
2017-Nov-02 17:00N 40°44' W 073°58'2 4.5
2017-Nov-02 16:30N 40°42' W 073°59'1 2.3
2017-Nov-02 16:01N 40°42' W 074°00'1 1.3
2017-Nov-02 15:30N 40°42' W 074°00'3 5.9
2017-Nov-02 15:00N 40°45' W 073°58'2 4.5
2017-Nov-02 14:30N 40°42' W 073°59'1 2.3
2017-Nov-02 14:00N 40°42' W 074°00'1 1.5
2017-Nov-02 13:30N 40°42' W 073°59'2 4.9
2017-Nov-02 13:00N 40°45' W 073°58'3 5.4
2017-Nov-02 12:30N 40°42' W 073°60'0 0.9
2017-Nov-02 12:00N 40°42' W 074°00'3 5.2
2017-Nov-02 11:30N 40°44' W 073°58'1 2.9
2017-Nov-02 11:00N 40°43' W 073°58'1 1.0
2017-Nov-02 10:30N 40°42' W 073°58'0 0.0
2017-Nov-02 02:12N 40°42' W 073°58'2 8.5
2017-Nov-02 02:01N 40°44' W 073°58'1 2.5
2017-Nov-02 01:30N 40°45' W 073°57'3 7.0
2017-Nov-02 01:01N 40°42' W 074°00'3 7.0
2017-Nov-02 00:30N 40°45' W 073°57'1 1.1
2017-Nov-01 23:59N 40°45' W 073°57'3 6.5
2017-Nov-01 23:30N 40°43' W 073°59'2 4.3
2017-Nov-01 23:00N 40°45' W 073°58'2 4.5
2017-Nov-01 22:30N 40°46' W 073°56'2 4.6
2017-Nov-01 22:01N 40°45' W 073°58'2 4.1
2017-Nov-01 21:31N 40°43' W 073°59'3 6.3
2017-Nov-01 21:01N 40°46' W 073°57'1 1.5
2017-Nov-01 20:31N 40°45' W 073°57'3 6.9
2017-Nov-01 20:00N 40°42' W 074°00'2 3.1
2017-Nov-01 19:30N 40°42' W 073°58'0 0.0
2017-Nov-01 19:00N 40°42' W 073°58'0 0.0
2017-Nov-01 18:30N 40°42' W 073°58'0 0.0
2017-Oct-31 23:05N 40°42' W 073°58'0 3.9
2017-Oct-31 23:00N 40°42' W 073°58'3 5.1
2017-Oct-31 22:31N 40°45' W 073°58'1 2.2
2017-Oct-31 21:59N 40°46' W 073°57'2 3.4
2017-Oct-31 21:31N 40°44' W 073°58'0 0.6
2017-Oct-31 21:01N 40°44' W 073°58'3 5.4
2017-Oct-31 20:30N 40°46' W 073°56'2 3.5
2017-Oct-31 20:01N 40°45' W 073°57'3 6.3
2017-Oct-31 19:30N 40°42' W 073°60'4 7.3
2017-Oct-31 19:00N 40°45' W 073°57'0 0.0
2017-Oct-31 18:30N 40°45' W 073°57'4 8.1
2017-Oct-31 18:00N 40°42' W 074°00'3 6.1
2017-Oct-31 17:31N 40°45' W 073°58'  

Dump ship's entire track history